• Join FlightAware (Why Join?)
  • Login
  • US Flag 
01:14PM EDT


 

Airport Tracker/Info


-or-


 

Live Flight TrackerFlight Track Log ✈ AWI3551 ✈ 01-May-2013 ✈ KBUF - KPHL

Flight Track Log - Related Links

Times and Time Zones

All times are in EDT time to prevent confusion due to time zone crossing. See the AWI3551 flight status page for this flight to view local times or setup timezone preferences in your user account.

Time Position Orientation Groundspeed Altitude Reporting Facility
EDT Latitude Longitude Course Direction KTS MPH feet Rate Location/Type
05:29AM 42.9333 -78.7500 174° South 158 182 1,500  Level Buffalo TRACON
05:29AM 42.9000 -78.7833 216° Southwest 170 196 3,200 1,920 Climbing Buffalo TRACON
05:30AM 42.8381 -78.7881 183° South 228 262 4,800 2,220 Climbing Cleveland Center
05:31AM 42.7647 -78.7675 168° South 263 303 7,700 2,700 Climbing Cleveland Center
05:32AM 42.5213 -78.6647 173° South  Level FlightAware Approximate
05:32AM 42.6894 -78.7472 169° South 288 331 10,300  Level Cleveland Center
05:33AM 42.4182 -78.6500 180° South  Level FlightAware Approximate
05:33AM 42.6036 -78.7272 170° South 294 338 12,800  Level Cleveland Center
05:34AM 42.3148 -78.6426 174° South  Level FlightAware Approximate
05:34AM 42.5158 -78.7100 172° South 310 357 15,300  Level Cleveland Center
05:35AM 42.4217 -78.6903 171° South 323 372 17,500 1,860 Climbing Cleveland Center
05:36AM 42.3297 -78.6678 170° South 335 386 19,100 1,680 Climbing Cleveland Center
05:37AM 42.2333 -78.6453 170° South 340 391 20,900 1,500 Climbing Cleveland Center
05:38AM 42.1414 -78.6314 174° South 353 406 22,100 1,260 Climbing Cleveland Center
05:39AM 42.0447 -78.5811 159° South 360 414 23,500 1,320 Climbing Cleveland Center
05:40AM 41.9500 -78.5283 157° South 366 421 24,800 720 Climbing Cleveland Center
05:41AM 41.8469 -78.4731 158° South 379 436 25,000 60 Climbing Cleveland Center
05:42AM 41.7353 -78.4156 159° South 403 464 25,000  Level Cleveland Center
05:43AM 41.6194 -78.3556 159° South 430 495 25,000  Level Cleveland Center
05:44AM 41.5014 -78.2931 158° South 445 512 25,000  Level Cleveland Center
05:45AM 41.3847 -78.2344 159° South 447 514 25,000  Level New York Center
05:46AM 41.2678 -78.1719 158° South 452 520 25,000  Level New York Center
05:47AM 41.1525 -78.1153 160° South 452 520 25,000  Level New York Center
05:48AM 41.0333 -78.0528 158° South 452 520 25,000  Level New York Center
05:49AM 40.9186 -77.9856 156° South 452 520 25,000  Level New York Center
05:50AM 40.8342 -77.8642 133° Southeast 440 506 25,000 -600 Level New York Center
05:51AM 40.7519 -77.7433 132° Southeast 445 512 23,800 -1,740 Descending New York Center
05:52AM 40.6678 -77.6142 131° Southeast 451 519 21,600 -2,100 Descending New York Center
05:53AM 40.5889 -77.4997 132° Southeast 444 511 19,600 -1,800 Descending New York Center
05:54AM 40.5139 -77.3858 131° Southeast 424 488 18,100 -840 Descending New York Center
05:55AM 40.4328 -77.3072 144° Southeast 382 440 18,000 -60 Descending New York Center
05:56AM 40.3597 -77.2703 159° South 361 415 18,000  Level New York Center
05:57AM 40.2539 -77.2225 161° South 346 398 18,000  Level New York Center
05:58AM 40.1625 -77.1786 160° South 341 392 18,000  Level New York Center
05:59AM 40.0939 -77.0989 138° Southeast 341 392 18,000  Level New York Center
06:00AM 40.0872 -76.9872 94° East 302 348 18,000 -60 Level New York Center
06:01AM 40.0956 -76.8683 85° East 298 343 17,900 -540 Descending New York Center
06:02AM 40.1008 -76.7658 86° East 313 360 17,000 -1,020 Descending New York Center
06:03AM 40.1072 -76.6414 86° East 308 354 15,900 -1,080 Descending New York Center
06:04AM 40.1106 -76.5303 88° East 308 354 14,900 -1,020 Descending New York Center
06:05AM 40.1158 -76.4194 86° East 308 354 13,900 -1,020 Descending New York Center
06:06AM 40.1208 -76.3114 87° East 303 349 12,900 -960 Descending New York Center
06:07AM 40.1150 -76.2158 95° East 298 343 12,000 -1,080 Descending New York Center
06:08AM 40.1078 -76.1011 95° East 292 336 10,800 -1,080 Descending New York Center
06:09AM 40.0997 -76.0003 96° East 292 336 9,900 -960 Descending New York Center
06:10AM 40.0936 -75.8992 94° East 287 330 8,900 -1,020 Descending New York Center
06:11AM 40.0856 -75.8011 96° East 272 313 7,900 -1,020 Descending New York Center
06:12AM 40.0875 -75.7061 88° East 272 313 6,900 -960 Descending New York Center
06:13AM 40.0872 -75.6083 90° East 267 307 6,000 -840 Descending New York Center
06:14AM 40.0869 -75.5161 90° East 267 307 5,300 -540 Descending New York Center
06:15AM 40.0756 -75.4342 100° East 239 275 5,000 -420 Descending New York Center
06:16AM 40.0247 -75.4036 155° Southeast 189 217 4,500 -540 Descending New York Center
06:17AM 39.9733 -75.3839 164° South 194 223 4,000 -300 Descending New York Center
06:18AM 39.9244 -75.3561 156° South 194 223 4,000  Level New York Center
06:19AM 39.9167 -75.3500 149° Southeast 191 220 4,000 -660 Level Philadelphia TRACON
06:20AM 39.8667 -75.3333 166° South 195 224 3,200 -480 Descending Philadelphia TRACON
06:21AM 39.8000 -75.3000 159° South 189 217 3,000 -300 Descending Philadelphia TRACON
06:22AM 39.7667 -75.2667 142° Southeast 190 219 2,600 -600 Descending Philadelphia TRACON
06:23AM 39.7833 -75.2167 67° East 145 167 1,900 -720 Descending Philadelphia TRACON